createdAt,value
2023-05-15T00:01:35.790Z,14.74
2023-05-15T00:04:11.391Z,14.51
2023-05-15T00:06:42.416Z,14.60
2023-05-15T00:09:11.049Z,14.59
2023-05-15T00:11:42.066Z,14.25
2023-05-15T00:14:12.181Z,14.29
2023-05-15T00:16:40.075Z,14.22
2023-05-15T00:19:16.429Z,14.08
2023-05-15T00:21:44.637Z,14.06
2023-05-15T00:24:14.265Z,14.09
2023-05-15T00:26:43.417Z,14.36
2023-05-15T00:29:11.162Z,14.68
2023-05-15T00:31:38.967Z,14.74
2023-05-15T00:34:07.513Z,14.22
2023-05-15T00:36:35.573Z,14.68
2023-05-15T00:39:12.923Z,14.53
2023-05-15T00:41:43.748Z,14.05
2023-05-15T00:44:14.501Z,13.77
2023-05-15T00:47:01.431Z,13.74
2023-05-15T00:49:38.623Z,14.06
2023-05-15T00:52:08.640Z,13.89
2023-05-15T00:54:47.915Z,14.15
2023-05-15T00:57:21.481Z,14.05
2023-05-15T00:59:49.523Z,13.53
2023-05-15T01:02:22.104Z,13.55
2023-05-15T01:04:55.746Z,14.06
2023-05-15T01:07:23.794Z,14.17
2023-05-15T01:09:52.191Z,13.96
2023-05-15T01:12:23.837Z,13.50
2023-05-15T01:14:51.909Z,13.89
2023-05-15T01:17:19.633Z,13.59
2023-05-15T01:19:50.108Z,13.77
2023-05-15T01:22:40.862Z,13.77
2023-05-15T01:25:55.482Z,13.76
2023-05-15T01:28:29.542Z,13.61
2023-05-15T01:31:00.920Z,14.22
2023-05-15T01:33:37.875Z,14.41
2023-05-15T01:36:11.603Z,14.21
2023-05-15T01:38:47.174Z,14.18
2023-05-15T01:41:23.701Z,14.38
2023-05-15T01:43:56.020Z,14.59
2023-05-15T01:46:30.972Z,14.95
2023-05-15T01:49:06.858Z,15.28
2023-05-15T01:51:34.802Z,15.46
2023-05-15T01:54:03.867Z,15.46
2023-05-15T01:56:34.833Z,15.58
2023-05-15T01:59:22.782Z,15.25
2023-05-15T02:01:51.765Z,14.49
2023-05-15T02:04:20.177Z,13.73
2023-05-15T02:06:50.657Z,13.78
2023-05-15T02:09:20.058Z,13.81
2023-05-15T02:11:48.610Z,13.84
2023-05-15T02:14:18.813Z,13.83
2023-05-15T02:17:03.076Z,14.17
2023-05-15T02:19:31.008Z,14.49
2023-05-15T02:22:01.936Z,14.08
2023-05-15T02:24:30.161Z,13.86
2023-05-15T02:27:02.173Z,13.40
2023-05-15T02:29:37.115Z,13.26
2023-05-15T02:32:10.573Z,13.65
2023-05-15T02:34:40.964Z,13.24
2023-05-15T02:37:13.877Z,13.18
2023-05-15T02:39:43.728Z,13.26
2023-05-15T02:42:15.475Z,13.43
2023-05-15T02:44:45.579Z,13.17
2023-05-15T02:47:17.597Z,12.91
2023-05-15T02:49:46.330Z,13.43
2023-05-15T02:52:16.725Z,13.13
2023-05-15T02:54:44.521Z,12.91
2023-05-15T02:57:19.907Z,13.08
2023-05-15T02:59:49.664Z,13.11
2023-05-15T03:02:19.932Z,12.89
2023-05-15T03:04:52.102Z,13.52
2023-05-15T03:07:22.982Z,13.38
2023-05-15T03:09:54.264Z,13.37
2023-05-15T03:12:22.379Z,13.57
2023-05-15T03:14:57.449Z,13.76
2023-05-15T03:17:26.209Z,13.77
2023-05-15T03:19:59.786Z,13.88
2023-05-15T03:22:30.747Z,14.29
2023-05-15T03:25:02.292Z,14.21
2023-05-15T03:27:30.052Z,14.24
2023-05-15T03:30:02.028Z,14.37
2023-05-15T03:32:33.357Z,14.08
2023-05-15T03:35:01.468Z,13.65
2023-05-15T03:37:29.916Z,13.23
2023-05-15T03:40:00.597Z,13.45
2023-05-15T03:42:33.534Z,13.42
2023-05-15T03:45:04.659Z,13.81
2023-05-15T03:47:36.849Z,13.63
2023-05-15T03:50:09.434Z,13.65
2023-05-15T03:52:42.379Z,13.95
2023-05-15T03:55:12.208Z,13.70
2023-05-15T03:57:41.843Z,14.10
2023-05-15T04:00:15.579Z,14.15
2023-05-15T04:02:51.519Z,14.04
2023-05-15T04:05:22.114Z,13.70
2023-05-15T04:07:50.290Z,13.38
2023-05-15T04:10:19.877Z,13.22
2023-05-15T04:12:50.419Z,13.81
2023-05-15T04:15:23.033Z,13.48
2023-05-15T04:17:52.715Z,14.29
2023-05-15T04:20:27.499Z,13.66
2023-05-15T04:22:58.445Z,13.64
2023-05-15T04:25:27.716Z,13.67
2023-05-15T04:28:05.010Z,13.42
2023-05-15T04:30:38.736Z,13.49
2023-05-15T04:33:07.444Z,13.52
2023-05-15T04:35:36.708Z,13.08
2023-05-15T04:38:06.855Z,13.60
2023-05-15T04:40:35.151Z,13.25
2023-05-15T04:43:04.885Z,13.15
2023-05-15T04:45:34.186Z,13.38
2023-05-15T04:48:08.397Z,13.51
2023-05-15T04:50:36.892Z,13.31
2023-05-15T04:53:07.993Z,13.44
2023-05-15T04:55:36.658Z,13.35
2023-05-15T04:58:07.559Z,13.37
2023-05-15T05:00:40.589Z,13.28
2023-05-15T05:03:10.202Z,13.26
2023-05-15T05:05:38.761Z,13.21
2023-05-15T05:08:11.127Z,13.72
2023-05-15T05:10:39.629Z,13.49
2023-05-15T05:13:10.691Z,13.66
2023-05-15T05:15:54.331Z,13.95
2023-05-15T05:18:25.696Z,14.17
2023-05-15T05:21:03.721Z,14.58
2023-05-15T05:23:31.939Z,13.67
2023-05-15T05:26:05.342Z,14.28
2023-05-15T05:28:34.595Z,14.51
2023-05-15T05:31:09.774Z,14.83
2023-05-15T05:33:38.235Z,14.88
2023-05-15T05:36:06.708Z,14.84
2023-05-15T05:38:36.508Z,15.06
2023-05-15T05:41:10.548Z,14.31
2023-05-15T05:43:45.465Z,14.92
2023-05-15T05:46:15.511Z,15.24
2023-05-15T05:48:44.657Z,14.51
2023-05-15T05:51:14.537Z,14.60
2023-05-15T05:53:42.534Z,15.00
2023-05-15T05:56:13.159Z,13.62
2023-05-15T05:58:41.346Z,15.47
2023-05-15T06:01:14.290Z,14.95
2023-05-15T06:03:47.174Z,15.00
2023-05-15T06:06:15.084Z,15.18
2023-05-15T06:08:43.514Z,15.07
2023-05-15T06:11:11.391Z,15.31
2023-05-15T06:13:39.446Z,15.16
2023-05-15T06:16:11.026Z,15.38
2023-05-15T06:18:40.749Z,15.34
2023-05-15T06:21:12.063Z,15.02
2023-05-15T06:23:41.021Z,15.56
2023-05-15T06:26:12.918Z,14.85
2023-05-15T06:28:40.802Z,14.98
2023-05-15T06:31:19.171Z,15.82
2023-05-15T06:33:50.692Z,15.86
2023-05-15T06:36:22.889Z,16.16
2023-05-15T06:38:50.907Z,16.45
2023-05-15T06:41:21.585Z,16.11
2023-05-15T06:43:50.230Z,16.17
2023-05-15T06:46:19.137Z,15.83
2023-05-15T06:48:52.382Z,16.49
2023-05-15T06:51:20.465Z,16.66
2023-05-15T06:53:48.204Z,16.81
2023-05-15T06:56:16.028Z,13.73
2023-05-15T06:58:44.699Z,16.01
2023-05-15T07:01:13.903Z,16.20
2023-05-15T07:03:43.049Z,15.93
2023-05-15T07:06:14.901Z,15.74
2023-05-15T07:08:43.001Z,15.85
2023-05-15T07:11:11.090Z,16.09
2023-05-15T07:13:39.566Z,16.24
2023-05-15T07:16:12.786Z,15.85
2023-05-15T07:18:46.803Z,16.04
2023-05-15T07:21:21.767Z,17.01
2023-05-15T07:23:56.409Z,16.54
2023-05-15T07:26:34.355Z,16.95
2023-05-15T07:29:06.250Z,16.59
2023-05-15T07:31:34.981Z,17.23
2023-05-15T07:34:03.463Z,17.41
2023-05-15T07:36:35.916Z,16.86
2023-05-15T07:39:05.518Z,17.27
2023-05-15T07:41:38.000Z,16.13
2023-05-15T07:44:06.045Z,16.91
2023-05-15T07:46:37.848Z,17.02
2023-05-15T07:49:05.861Z,17.43
2023-05-15T07:51:37.730Z,16.70
2023-05-15T07:54:12.677Z,16.47
2023-05-15T07:56:44.079Z,17.56
2023-05-15T07:59:12.078Z,17.68
2023-05-15T08:01:41.218Z,17.87
2023-05-15T08:04:13.462Z,18.06
2023-05-15T08:06:44.633Z,18.13
2023-05-15T08:09:15.528Z,17.16
2023-05-15T08:11:46.015Z,17.41
2023-05-15T08:14:18.966Z,17.91
2023-05-15T08:16:57.599Z,18.06
2023-05-15T08:19:25.836Z,17.26
2023-05-15T08:21:57.037Z,17.46
2023-05-15T08:24:25.095Z,18.34
2023-05-15T08:26:55.633Z,18.89
2023-05-15T08:29:26.364Z,18.57
2023-05-15T08:31:58.075Z,18.72
2023-05-15T08:34:35.996Z,18.83
2023-05-15T08:37:10.364Z,18.74
2023-05-15T08:39:39.153Z,18.65
2023-05-15T08:42:11.537Z,18.73
2023-05-15T08:44:44.806Z,19.05
2023-05-15T08:47:15.981Z,18.71
2023-05-15T08:49:49.824Z,17.99
2023-05-15T08:52:22.661Z,18.07
2023-05-15T08:54:54.893Z,18.06
2023-05-15T08:57:23.458Z,18.58
2023-05-15T09:00:02.504Z,18.97
2023-05-15T09:02:31.450Z,18.99
2023-05-15T09:05:10.454Z,18.76
2023-05-15T09:07:40.961Z,17.39
2023-05-15T09:10:10.657Z,17.79
2023-05-15T09:12:43.274Z,16.98
2023-05-15T09:15:18.785Z,16.80
2023-05-15T09:17:52.629Z,18.20
2023-05-15T09:20:32.690Z,18.87
2023-05-15T09:23:07.103Z,18.30
2023-05-15T09:25:44.382Z,18.23
2023-05-15T09:28:28.963Z,18.28
2023-05-15T09:31:05.583Z,18.08
2023-05-15T09:33:38.634Z,18.23
2023-05-15T09:36:10.691Z,18.99
2023-05-15T09:38:48.360Z,19.70
2023-05-15T09:41:18.614Z,18.94
2023-05-15T09:43:49.902Z,18.87
2023-05-15T09:46:26.678Z,19.23
2023-05-15T09:48:56.594Z,19.70
2023-05-15T09:51:32.566Z,19.49
2023-05-15T09:54:02.157Z,19.76
2023-05-15T09:56:34.890Z,19.20
2023-05-15T09:59:09.628Z,19.68
2023-05-15T10:01:38.279Z,19.55
2023-05-15T10:04:09.218Z,19.15
2023-05-15T10:06:37.952Z,19.32
2023-05-15T10:09:07.628Z,19.68
2023-05-15T10:11:36.553Z,19.64
2023-05-15T10:14:05.756Z,19.53
2023-05-15T10:16:35.772Z,20.20
2023-05-15T10:19:07.616Z,20.03
2023-05-15T10:21:39.128Z,19.69
2023-05-15T10:24:10.396Z,20.12
2023-05-15T10:26:41.260Z,20.31
2023-05-15T10:29:14.592Z,19.28
2023-05-15T10:31:49.517Z,19.69
2023-05-15T10:34:21.631Z,19.06
2023-05-15T10:36:51.936Z,19.52
2023-05-15T10:39:29.790Z,20.01
2023-05-15T10:42:02.455Z,19.86
2023-05-15T10:44:33.442Z,20.59
2023-05-15T10:47:06.068Z,19.86
2023-05-15T10:49:34.450Z,19.67
2023-05-15T10:52:02.462Z,20.46
2023-05-15T10:54:32.340Z,19.71
2023-05-15T10:57:00.821Z,20.17
2023-05-15T10:59:37.077Z,20.49
2023-05-15T11:02:30.879Z,19.50
2023-05-15T11:05:05.377Z,20.76
2023-05-15T11:07:37.042Z,19.90
2023-05-15T11:10:38.344Z,19.11
2023-05-15T11:13:06.511Z,19.82
2023-05-15T11:15:45.407Z,19.75
2023-05-15T11:18:13.866Z,19.35
2023-05-15T11:21:07.121Z,19.59
2023-05-15T11:23:41.240Z,20.58
2023-05-15T11:26:11.122Z,20.34
2023-05-15T11:28:47.195Z,21.68
2023-05-15T11:31:19.636Z,21.60
2023-05-15T11:33:54.453Z,22.39
2023-05-15T11:36:26.697Z,22.24
2023-05-15T11:39:05.327Z,21.99
2023-05-15T11:41:36.547Z,21.73
2023-05-15T11:44:07.583Z,21.66
2023-05-15T11:46:38.624Z,22.72
2023-05-15T11:49:07.151Z,21.40
2023-05-15T11:51:36.635Z,22.15
2023-05-15T11:54:08.121Z,21.81
2023-05-15T11:56:44.002Z,21.63
2023-05-15T11:59:19.800Z,21.11
2023-05-15T12:01:50.935Z,20.09
2023-05-15T12:04:20.101Z,22.32
2023-05-15T12:06:51.788Z,21.35
2023-05-15T12:09:25.383Z,22.49
2023-05-15T12:11:55.119Z,22.67
2023-05-15T12:14:29.429Z,22.33
2023-05-15T12:17:03.184Z,22.11
2023-05-15T12:19:37.420Z,20.88
2023-05-15T12:22:12.034Z,21.16
2023-05-15T12:24:41.339Z,21.82
2023-05-15T12:27:14.807Z,22.61
2023-05-15T12:29:43.482Z,21.84
2023-05-15T12:32:12.008Z,21.80
2023-05-15T12:34:39.940Z,22.56
2023-05-15T12:37:15.926Z,22.64
2023-05-15T12:39:55.943Z,23.39
2023-05-15T12:42:26.510Z,22.98
2023-05-15T12:44:57.540Z,22.62
2023-05-15T12:47:30.104Z,21.45
2023-05-15T12:50:01.732Z,21.07
2023-05-15T12:52:31.551Z,20.99
2023-05-15T12:55:03.183Z,21.75
2023-05-15T12:57:36.389Z,21.66
2023-05-15T13:00:06.278Z,22.42
2023-05-15T13:02:34.980Z,21.81
2023-05-15T13:05:08.803Z,22.96
2023-05-15T13:07:43.049Z,23.01
2023-05-15T13:10:13.167Z,22.88
2023-05-15T13:12:45.194Z,22.75
2023-05-15T13:15:34.182Z,21.19
2023-05-15T13:18:05.207Z,21.48
2023-05-15T13:20:44.029Z,22.03
2023-05-15T13:23:23.830Z,22.07
2023-05-15T13:26:06.035Z,21.50
2023-05-15T13:28:36.897Z,21.61
2023-05-15T13:31:16.737Z,22.31
2023-05-15T13:33:45.588Z,21.85
2023-05-15T13:36:14.124Z,21.71
2023-05-15T13:38:52.269Z,20.58
2023-05-15T13:41:29.221Z,20.55
2023-05-15T13:44:00.912Z,20.75
2023-05-15T13:46:31.663Z,21.45
2023-05-15T13:49:02.581Z,21.76
2023-05-15T13:51:34.504Z,21.17
2023-05-15T13:54:05.736Z,21.74
2023-05-15T13:56:33.596Z,20.69
2023-05-15T13:59:05.524Z,22.40
2023-05-15T14:01:33.526Z,22.31
2023-05-15T14:04:04.086Z,22.81
2023-05-15T14:06:34.005Z,23.17
2023-05-15T14:09:08.676Z,22.84
2023-05-15T14:11:37.086Z,22.53
2023-05-15T14:14:07.061Z,22.12
2023-05-15T14:16:35.685Z,22.91
2023-05-15T14:19:04.222Z,23.16
2023-05-15T14:21:33.105Z,21.43
2023-05-15T14:24:04.857Z,22.14
2023-05-15T14:26:33.795Z,21.99
2023-05-15T14:29:03.075Z,21.84
2023-05-15T14:31:32.974Z,21.23
2023-05-15T14:34:03.985Z,22.12
2023-05-15T14:36:32.464Z,23.17
2023-05-15T14:39:04.725Z,23.38
2023-05-15T14:41:37.158Z,22.89
2023-05-15T14:44:05.437Z,22.53
2023-05-15T14:46:36.782Z,23.69
2023-05-15T14:49:06.849Z,23.66
2023-05-15T14:51:34.991Z,21.91
2023-05-15T14:54:09.502Z,21.52
2023-05-15T14:56:38.719Z,21.50
2023-05-15T14:59:07.256Z,21.57
2023-05-15T15:02:14.273Z,20.27
2023-05-15T15:04:42.657Z,20.02
2023-05-15T15:07:12.765Z,19.98
2023-05-15T15:09:43.351Z,19.46
2023-05-15T15:12:13.545Z,18.92
2023-05-15T15:14:43.367Z,18.51
2023-05-15T15:17:21.910Z,18.34
2023-05-15T15:19:50.118Z,18.08
2023-05-15T15:22:20.768Z,17.91
2023-05-15T15:24:50.680Z,18.21
2023-05-15T15:27:21.911Z,18.22
2023-05-15T15:29:55.532Z,18.49
2023-05-15T15:32:26.670Z,19.39
2023-05-15T15:34:55.826Z,19.14
2023-05-15T15:37:27.407Z,18.82
2023-05-15T15:39:57.632Z,18.74
2023-05-15T15:42:29.297Z,18.29
2023-05-15T15:44:57.615Z,18.34
2023-05-15T15:47:32.357Z,17.75
2023-05-15T15:50:00.728Z,17.09
2023-05-15T15:52:32.371Z,17.27
2023-05-15T15:55:00.381Z,17.20
2023-05-15T15:57:33.449Z,16.17
2023-05-15T16:00:04.258Z,15.66
2023-05-15T16:02:35.920Z,15.70
2023-05-15T16:05:09.088Z,15.49
2023-05-15T16:07:40.054Z,15.57
2023-05-15T16:10:13.159Z,15.60
2023-05-15T16:12:43.127Z,15.60
2023-05-15T16:15:22.472Z,15.42
2023-05-15T16:17:56.934Z,15.00
2023-05-15T16:20:35.663Z,14.60
2023-05-15T16:23:04.012Z,14.63
2023-05-15T16:25:31.837Z,14.76
2023-05-15T16:28:07.441Z,15.16
2023-05-15T16:30:48.237Z,15.42
2023-05-15T16:33:20.204Z,15.69
2023-05-15T16:35:57.445Z,16.01
2023-05-15T16:38:35.072Z,16.68
2023-05-15T16:41:03.566Z,17.09
2023-05-15T16:43:31.887Z,17.47
2023-05-15T16:46:02.144Z,17.96
2023-05-15T16:48:32.176Z,17.79
2023-05-15T16:51:00.669Z,18.15
2023-05-15T16:53:30.129Z,18.45
2023-05-15T16:55:58.305Z,18.58
2023-05-15T16:58:28.684Z,18.68
2023-05-15T17:01:15.221Z,18.42
2023-05-15T17:03:46.150Z,18.05
2023-05-15T17:06:14.500Z,18.89
2023-05-15T17:08:43.897Z,19.13
2023-05-15T17:11:15.227Z,18.19
2023-05-15T17:13:48.970Z,19.08
2023-05-15T17:16:17.297Z,18.95
2023-05-15T17:18:50.101Z,18.54
2023-05-15T17:21:27.642Z,18.18
2023-05-15T17:23:59.335Z,18.44
2023-05-15T17:26:36.932Z,18.14
2023-05-15T17:29:07.316Z,17.96
2023-05-15T17:31:37.051Z,18.23
2023-05-15T17:34:06.573Z,16.15
2023-05-15T17:36:35.304Z,17.06
2023-05-15T17:39:06.225Z,16.53
2023-05-15T17:41:34.264Z,17.10
2023-05-15T17:44:03.753Z,16.62
2023-05-15T17:46:35.006Z,16.79
2023-05-15T17:49:09.495Z,16.58
2023-05-15T17:51:37.475Z,16.89
2023-05-15T17:54:13.460Z,16.63
2023-05-15T17:56:41.292Z,16.97
2023-05-15T17:59:12.463Z,16.20
2023-05-15T18:01:40.444Z,16.37
2023-05-15T18:04:13.446Z,16.40
2023-05-15T18:06:42.707Z,16.45
2023-05-15T18:09:10.938Z,16.50
2023-05-15T18:11:39.925Z,16.19
2023-05-15T18:14:08.270Z,15.15
2023-05-15T18:16:50.376Z,15.36
2023-05-15T18:19:21.655Z,15.34
2023-05-15T18:21:52.718Z,15.28
2023-05-15T18:24:22.776Z,15.17
2023-05-15T18:26:53.467Z,15.29
2023-05-15T18:29:23.112Z,15.25
2023-05-15T18:31:52.587Z,14.91
2023-05-15T18:34:26.128Z,15.05
2023-05-15T18:36:54.175Z,15.07
2023-05-15T18:39:25.268Z,14.94
2023-05-15T18:41:54.475Z,14.83
2023-05-15T18:44:25.787Z,14.71
2023-05-15T18:46:54.348Z,14.52
2023-05-15T18:49:26.723Z,14.49
2023-05-15T18:51:54.569Z,14.38
2023-05-15T18:54:24.278Z,14.60
2023-05-15T18:56:57.879Z,14.65
2023-05-15T18:59:27.700Z,14.57
2023-05-15T19:02:00.549Z,14.32
2023-05-15T19:04:30.544Z,14.67
2023-05-15T19:07:04.311Z,14.94
2023-05-15T19:09:35.209Z,15.34
2023-05-15T19:12:05.308Z,15.56
2023-05-15T19:14:36.562Z,15.85
2023-05-15T19:17:12.471Z,15.69
2023-05-15T19:19:41.949Z,15.29
2023-05-15T19:22:14.807Z,15.13
2023-05-15T19:24:47.831Z,14.85
2023-05-15T19:27:18.629Z,15.06
2023-05-15T19:29:52.050Z,15.20
2023-05-15T19:32:35.518Z,15.33
2023-05-15T19:35:13.228Z,14.42
2023-05-15T19:37:46.205Z,14.92
2023-05-15T19:40:16.283Z,15.32
2023-05-15T19:42:48.270Z,15.13
2023-05-15T19:45:21.616Z,15.53
2023-05-15T19:47:54.833Z,15.58
2023-05-15T19:50:26.086Z,15.09
2023-05-15T19:52:56.286Z,15.12
2023-05-15T19:55:26.801Z,15.09
2023-05-15T19:57:59.065Z,15.28
2023-05-15T20:00:28.527Z,15.79
2023-05-15T20:03:00.977Z,15.67
2023-05-15T20:05:33.243Z,16.12
2023-05-15T20:08:03.155Z,16.33
2023-05-15T20:10:34.450Z,15.71
2023-05-15T20:13:03.821Z,15.13
2023-05-15T20:15:32.284Z,14.79
2023-05-15T20:18:11.376Z,14.82
2023-05-15T20:20:44.094Z,14.92
2023-05-15T20:23:19.651Z,14.81
2023-05-15T20:25:49.963Z,15.46
2023-05-15T20:28:20.387Z,15.69
2023-05-15T20:30:53.886Z,14.41
2023-05-15T20:33:21.793Z,14.81
2023-05-15T20:35:53.368Z,14.69
2023-05-15T20:38:24.144Z,14.80
2023-05-15T20:40:53.195Z,14.85
2023-05-15T20:43:24.314Z,14.81
2023-05-15T20:45:52.815Z,15.18
2023-05-15T20:48:27.019Z,15.30
2023-05-15T20:50:59.706Z,15.34
2023-05-15T20:53:28.973Z,15.52
2023-05-15T20:55:56.842Z,15.74
2023-05-15T20:58:24.978Z,16.19
2023-05-15T21:00:54.829Z,16.40
2023-05-15T21:03:24.706Z,16.88
2023-05-15T21:05:54.816Z,17.08
2023-05-15T21:08:28.256Z,17.03
2023-05-15T21:10:58.859Z,17.41
2023-05-15T21:13:27.339Z,17.43
2023-05-15T21:16:00.460Z,17.33
2023-05-15T21:18:31.145Z,16.75
2023-05-15T21:21:03.535Z,16.57
2023-05-15T21:23:33.583Z,16.31
2023-05-15T21:26:04.549Z,16.22
2023-05-15T21:28:34.467Z,16.41
2023-05-15T21:31:11.784Z,15.75
2023-05-15T21:33:43.575Z,16.54
2023-05-15T21:36:12.892Z,16.54
2023-05-15T21:38:49.560Z,16.72
2023-05-15T21:41:18.714Z,16.35
2023-05-15T21:43:47.129Z,16.38
2023-05-15T21:46:20.058Z,16.55
2023-05-15T21:48:51.214Z,16.32
2023-05-15T21:51:22.837Z,16.03
2023-05-15T21:53:57.291Z,16.13
2023-05-15T21:56:27.321Z,16.26
2023-05-15T21:58:55.609Z,16.25
2023-05-15T22:01:23.748Z,16.05
2023-05-15T22:04:00.810Z,16.28
2023-05-15T22:06:33.477Z,15.35
2023-05-15T22:09:15.060Z,15.24
2023-05-15T22:11:43.360Z,15.60
2023-05-15T22:14:12.864Z,15.14
2023-05-15T22:16:40.956Z,15.74
2023-05-15T22:19:31.567Z,15.21
2023-05-15T22:22:01.183Z,14.24
2023-05-15T22:24:30.646Z,14.49
2023-05-15T22:26:58.875Z,15.02
2023-05-15T22:29:27.439Z,14.83
2023-05-15T22:31:55.923Z,14.71
2023-05-15T22:34:30.311Z,14.45
2023-05-15T22:37:00.049Z,14.64
2023-05-15T22:39:29.801Z,15.06
2023-05-15T22:41:59.219Z,15.33
2023-05-15T22:44:31.555Z,15.62
2023-05-15T22:47:04.152Z,14.99
2023-05-15T22:49:34.995Z,14.74
2023-05-15T22:52:03.674Z,14.66
2023-05-15T22:54:47.028Z,14.31
2023-05-15T22:57:20.122Z,14.66
2023-05-15T22:59:48.071Z,14.72
2023-05-15T23:02:17.994Z,14.13
2023-05-15T23:04:48.533Z,13.92
2023-05-15T23:07:17.272Z,14.19
2023-05-15T23:09:45.064Z,13.95
2023-05-15T23:12:16.995Z,14.34
2023-05-15T23:14:44.782Z,14.18
2023-05-15T23:17:13.535Z,14.12
2023-05-15T23:19:44.508Z,14.27
2023-05-15T23:22:13.738Z,14.06
2023-05-15T23:24:42.532Z,14.24
2023-05-15T23:27:10.572Z,13.99
2023-05-15T23:29:44.220Z,14.11
2023-05-15T23:32:15.546Z,13.78
2023-05-15T23:34:45.473Z,14.11
2023-05-15T23:37:22.720Z,13.66
2023-05-15T23:40:14.168Z,14.00
2023-05-15T23:42:44.097Z,13.89
2023-05-15T23:45:17.887Z,13.83
2023-05-15T23:47:46.838Z,13.73
2023-05-15T23:50:15.147Z,13.85
2023-05-15T23:52:46.492Z,13.96
2023-05-15T23:55:17.104Z,14.10
2023-05-15T23:57:47.211Z,13.69
